Time;durP1;ratioP1;P1;durP2;ratioP2;P2;SDS_P1;SDS_P2;PMS_P1;PMS_P2;Temp;Humidity;BMP_temperature;BMP_pressure;BME280_temperature;BME280_humidity;BME280_pressure;Samples;Min_cycle;Max_cycle;Signal;HPM_P1;HPM_P2
2024/04/23 00:01:52;;;;;;;2.80;1.05;;;;;;;-145.63;100.00;61273.97;4979564;28;20039;-63
2024/04/23 00:04:17;;;;;;;3.80;0.80;;;;;;;-145.63;100.00;61273.97;4980557;28;20081;-63
2024/04/23 00:07:00;;;;;;;0.68;0.68;;;;;;;-145.63;100.00;61273.97;4988801;28;20018;-63
2024/04/23 00:09:27;;;;;;;0.80;0.80;;;;;;;-145.63;100.00;61273.97;4983958;28;20034;-63
2024/04/23 00:11:53;;;;;;;0.82;0.80;;;;;;;-145.63;100.00;61273.97;4985712;28;20109;-63
2024/04/23 00:14:19;;;;;;;2.25;0.60;;;;;;;-145.63;100.00;61273.97;4980242;28;20037;-64
2024/04/23 00:17:04;;;;;;;1.40;0.70;;;;;;;-145.63;100.00;61273.97;4983225;28;20018;-63
2024/04/23 00:19:31;;;;;;;1.63;0.70;;;;;;;-145.63;100.00;61273.97;4979461;28;20037;-63
2024/04/23 00:21:57;;;;;;;1.02;0.80;;;;;;;-145.63;100.00;61273.97;4983909;28;20031;-63
2024/04/23 00:24:23;;;;;;;0.77;0.60;;;;;;;-145.63;100.00;61273.97;4982202;28;20023;-62
2024/04/23 00:26:59;;;;;;;1.15;0.75;;;;;;;-145.63;100.00;61273.97;4984695;28;20117;-63
2024/04/23 00:29:28;;;;;;;0.73;0.65;;;;;;;-145.63;100.00;61273.97;4984310;28;20026;-63
2024/04/23 00:31:54;;;;;;;0.70;0.70;;;;;;;-145.63;100.00;61273.97;4979457;28;20067;-63
2024/04/23 00:34:21;;;;;;;1.52;0.75;;;;;;;-145.63;100.00;61273.97;4985255;28;20034;-62
2024/04/23 00:36:54;;;;;;;0.80;0.80;;;;;;;-145.63;100.00;61273.97;4985283;28;20170;-62
2024/04/23 00:39:20;;;;;;;1.15;1.05;;;;;;;-145.63;100.00;61273.97;4981196;28;20113;-64
2024/04/23 00:41:46;;;;;;;1.50;0.90;;;;;;;-145.63;100.00;61273.97;4984049;28;20572;-62
2024/04/23 00:44:12;;;;;;;0.80;0.80;;;;;;;-145.63;100.00;61273.97;4980972;28;20027;-62
2024/04/23 00:46:38;;;;;;;0.95;0.88;;;;;;;-145.63;100.00;61273.97;4985885;28;20037;-62
2024/04/23 00:49:08;;;;;;;0.85;0.85;;;;;;;-145.63;100.00;61273.97;4987998;28;20065;-63
2024/04/23 00:51:35;;;;;;;1.73;0.90;;;;;;;-145.63;100.00;61273.97;4983159;28;20097;-62
2024/04/23 00:54:01;;;;;;;1.63;0.75;;;;;;;-145.63;100.00;61273.97;4983463;28;20069;-62
2024/04/23 00:56:28;;;;;;;0.93;0.70;;;;;;;-145.63;100.00;61273.97;4981747;28;20029;-64
2024/04/23 00:58:55;;;;;;;0.63;0.63;;;;;;;-145.63;100.00;61273.97;4980851;28;20550;-62
2024/04/23 01:01:21;;;;;;;0.60;0.60;;;;;;;-145.63;100.00;61273.97;4986024;28;20038;-61
2024/04/23 01:03:47;;;;;;;0.60;0.60;;;;;;;-145.63;100.00;61273.97;4997838;28;20034;-62
2024/04/23 01:06:12;;;;;;;1.05;0.70;;;;;;;-145.63;100.00;61273.97;4986640;28;20376;-62
2024/04/23 01:08:38;;;;;;;3.03;0.88;;;;;;;-145.63;100.00;61273.97;4982849;28;20078;-62
2024/04/23 01:11:05;;;;;;;0.93;0.93;;;;;;;-145.63;100.00;61273.97;4979055;28;20023;-61
2024/04/23 01:13:30;;;;;;;1.13;0.77;;;;;;;-145.63;100.00;61273.97;4984300;28;20033;-62
2024/04/23 01:15:57;;;;;;;0.60;0.60;;;;;;;-145.63;100.00;61273.97;4978229;28;20038;-64
2024/04/23 01:18:24;;;;;;;1.27;0.90;;;;;;;-145.63;100.00;61273.97;4981099;28;20483;-62
2024/04/23 01:20:54;;;;;;;0.77;0.77;;;;;;;-145.63;100.00;61273.97;4983987;28;20097;-62
2024/04/23 01:23:26;;;;;;;0.60;0.60;;;;;;;-145.63;100.00;61273.97;4980663;28;20018;-63
2024/04/23 01:25:54;;;;;;;2.35;0.88;;;;;;;-145.63;100.00;61273.97;4981167;28;20413;-63
2024/04/23 01:28:20;;;;;;;1.48;0.70;;;;;;;-145.63;100.00;61273.97;4979352;28;20035;-62
2024/04/23 01:30:47;;;;;;;0.70;0.70;;;;;;;-145.63;100.00;61273.97;4984231;28;20038;-63
2024/04/23 01:33:14;;;;;;;0.77;0.70;;;;;;;-145.63;100.00;61273.97;4981374;28;20035;-62
2024/04/23 01:35:40;;;;;;;0.93;0.70;;;;;;;-145.63;100.00;61273.97;4982904;28;20034;-62
2024/04/23 01:38:08;;;;;;;0.98;0.85;;;;;;;-145.63;100.00;61273.97;4983020;28;20108;-63
2024/04/23 01:40:34;;;;;;;1.38;0.85;;;;;;;-145.63;100.00;61273.97;4988216;28;20037;-62
2024/04/23 01:43:00;;;;;;;1.30;0.80;;;;;;;-145.63;100.00;61273.97;4978066;28;20054;-62
2024/04/23 01:45:26;;;;;;;0.98;0.70;;;;;;;-145.63;100.00;61273.97;4988463;28;20042;-63
2024/04/23 01:47:53;;;;;;;2.15;0.90;;;;;;;-145.63;100.00;61273.97;4987584;28;20137;-63
2024/04/23 01:50:18;;;;;;;1.00;0.90;;;;;;;-145.63;100.00;61273.97;4979760;28;20030;-62
2024/04/23 01:52:44;;;;;;;0.80;0.80;;;;;;;-145.63;100.00;61273.97;4985307;28;20022;-63
2024/04/23 01:55:10;;;;;;;1.80;1.00;;;;;;;-145.63;100.00;61273.97;4980118;28;20030;-62
2024/04/23 01:57:37;;;;;;;2.03;0.80;;;;;;;-145.63;100.00;61273.97;4979458;28;20392;-63
2024/04/23 02:00:13;;;;;;;1.63;0.90;;;;;;;-145.63;100.00;61273.97;4987412;28;20070;-61
2024/04/23 02:02:40;;;;;;;0.80;0.80;;;;;;;-145.63;100.00;61273.97;4983998;28;20097;-63
2024/04/23 02:05:08;;;;;;;1.10;0.77;;;;;;;-145.63;100.00;61273.97;4983182;28;20042;-64
2024/04/23 02:07:35;;;;;;;1.80;0.90;;;;;;;-145.63;100.00;61273.97;4980902;28;20161;-62
2024/04/23 02:10:02;;;;;;;0.85;0.85;;;;;;;-145.63;100.00;61273.97;4980850;28;20046;-62
2024/04/23 02:12:32;;;;;;;1.05;0.90;;;;;;;-145.63;100.00;61273.97;4981286;28;20031;-64
2024/04/23 02:14:57;;;;;;;1.10;1.00;;;;;;;-145.63;100.00;61273.97;4983030;28;20034;-64
2024/04/23 02:17:23;;;;;;;1.40;1.30;;;;;;;-145.63;100.00;61273.97;4983200;28;20447;-61
2024/04/23 02:20:10;;;;;;;2.20;1.20;;;;;;;-145.63;100.00;61273.97;4977581;28;20134;-63
2024/04/23 02:22:36;;;;;;;1.25;1.10;;;;;;;-145.63;100.00;61273.97;4982004;28;20092;-63
2024/04/23 02:25:03;;;;;;;1.20;1.10;;;;;;;-145.63;100.00;61273.97;4983683;28;20045;-63
2024/04/23 02:27:29;;;;;;;2.15;1.05;;;;;;;-145.63;100.00;61273.97;4980671;28;20066;-62
2024/04/23 02:29:55;;;;;;;1.00;0.90;;;;;;;-145.63;100.00;61273.97;4981775;28;20026;-62
2024/04/23 02:32:20;;;;;;;1.13;1.00;;;;;;;-145.63;100.00;61273.97;4981818;28;20025;-62
2024/04/23 02:34:46;;;;;;;1.13;1.02;;;;;;;-145.63;100.00;61273.97;4976904;28;20036;-61
2024/04/23 02:37:12;;;;;;;1.73;1.00;;;;;;;-145.63;100.00;61273.97;4984664;28;20054;-61
2024/04/23 02:39:37;;;;;;;0.95;0.90;;;;;;;-145.63;100.00;61273.97;4979999;28;20049;-62
2024/04/23 02:42:03;;;;;;;0.55;0.55;;;;;;;-145.63;100.00;61273.97;4982466;28;20114;-65
2024/04/23 02:44:31;;;;;;;1.30;0.90;;;;;;;-145.63;100.00;61273.97;4979909;28;20046;-61
2024/04/23 02:46:57;;;;;;;2.03;0.90;;;;;;;-145.63;100.00;61273.97;4983159;28;20042;-61
2024/04/23 02:49:22;;;;;;;2.13;0.98;;;;;;;-145.63;100.00;61273.97;4984293;28;20030;-61
2024/04/23 02:51:48;;;;;;;0.85;0.85;;;;;;;-145.63;100.00;61273.97;4983648;28;20056;-62
2024/04/23 02:54:14;;;;;;;0.80;0.80;;;;;;;-145.63;100.00;61273.97;4979708;28;20035;-63
2024/04/23 02:56:40;;;;;;;0.70;0.70;;;;;;;-145.63;100.00;61273.97;4981018;28;20030;-61
2024/04/23 02:59:05;;;;;;;1.75;0.80;;;;;;;-145.63;100.00;61273.97;4978106;28;20103;-62
2024/04/23 03:01:31;;;;;;;0.70;0.70;;;;;;;-145.63;100.00;61273.97;4985329;28;20580;-62
2024/04/23 03:03:56;;;;;;;1.77;0.70;;;;;;;-145.63;100.00;61273.97;4977120;28;20066;-63
2024/04/23 03:06:22;;;;;;;1.23;0.70;;;;;;;-145.63;100.00;61273.97;4983828;28;20034;-61
2024/04/23 03:08:49;;;;;;;2.70;0.90;;;;;;;-145.63;100.00;61273.97;4981868;28;20069;-61
2024/04/23 03:11:15;;;;;;;1.15;0.70;;;;;;;-145.63;100.00;61273.97;4977865;28;20701;-64
2024/04/23 03:13:41;;;;;;;0.70;0.70;;;;;;;-145.63;100.00;61273.97;4984736;28;20365;-63
2024/04/23 03:16:07;;;;;;;0.82;0.63;;;;;;;-145.63;100.00;61273.97;4976058;28;20026;-62
2024/04/23 03:18:32;;;;;;;0.57;0.57;;;;;;;-145.63;100.00;61273.97;4980370;28;20437;-63
2024/04/23 03:20:58;;;;;;;1.77;0.70;;;;;;;-145.63;100.00;61273.97;4980337;28;20387;-65
2024/04/23 03:23:23;;;;;;;0.68;0.68;;;;;;;-145.63;100.00;61273.97;4979178;28;20026;-62
2024/04/23 03:25:49;;;;;;;0.63;0.63;;;;;;;-145.63;100.00;61273.97;4982744;28;20023;-62
2024/04/23 03:28:15;;;;;;;0.90;0.50;;;;;;;-145.63;100.00;61273.97;4984319;28;20023;-62
2024/04/23 03:30:40;;;;;;;0.60;0.60;;;;;;;-145.63;100.00;61273.97;4981351;28;20042;-63
2024/04/23 03:33:06;;;;;;;0.60;0.60;;;;;;;-145.63;100.00;61273.97;4980580;28;20038;-62
2024/04/23 03:35:31;;;;;;;0.70;0.70;;;;;;;-145.63;100.00;61273.97;4981536;28;20053;-61
2024/04/23 03:37:57;;;;;;;1.38;0.88;;;;;;;-145.63;100.00;61273.97;4981202;28;20423;-62
2024/04/23 03:40:23;;;;;;;1.10;0.98;;;;;;;-145.63;100.00;61273.97;4980437;28;20026;-63
2024/04/23 03:42:48;;;;;;;0.80;0.80;;;;;;;-145.63;100.00;61273.97;4982725;28;20034;-62
2024/04/23 03:45:14;;;;;;;1.45;1.08;;;;;;;-145.63;100.00;61273.97;4979640;28;20056;-63
2024/04/23 03:47:39;;;;;;;2.80;0.75;;;;;;;-145.63;100.00;61273.97;4993367;28;20046;-62
2024/04/23 03:50:05;;;;;;;0.80;0.80;;;;;;;-145.63;100.00;61273.97;4982353;28;20332;-63
2024/04/23 03:52:31;;;;;;;2.42;0.63;;;;;;;-145.63;100.00;61273.97;4985795;28;20072;-64
2024/04/23 03:54:57;;;;;;;0.70;0.70;;;;;;;-145.63;100.00;61273.97;4987279;28;20038;-63
2024/04/23 03:57:23;;;;;;;0.82;0.70;;;;;;;-145.63;100.00;61273.97;4984135;28;20037;-62
2024/04/23 03:59:48;;;;;;;2.05;0.70;;;;;;;-145.63;100.00;61273.97;4983437;28;20050;-60
2024/04/23 04:07:45;;;;;;;0.75;0.52;;;;;;;-145.63;100.00;61273.97;4990374;28;20027;-62
2024/04/23 04:10:11;;;;;;;0.60;0.60;;;;;;;-145.63;100.00;61273.97;4981301;28;20037;-62
2024/04/23 04:12:37;;;;;;;0.65;0.60;;;;;;;-145.63;100.00;61273.97;4984212;28;20053;-63
2024/04/23 04:15:02;;;;;;;0.70;0.70;;;;;;;-145.63;100.00;61273.97;4983910;28;20030;-62
2024/04/23 04:17:29;;;;;;;0.98;0.50;;;;;;;-145.63;100.00;61273.97;4987035;28;20027;-63
2024/04/23 04:19:55;;;;;;;2.83;0.68;;;;;;;-145.63;100.00;61273.97;4981772;28;20038;-62
2024/04/23 04:22:21;;;;;;;0.75;0.50;;;;;;;-145.63;100.00;61273.97;4986999;28;20391;-62
2024/04/23 04:24:46;;;;;;;0.50;0.50;;;;;;;-145.63;100.00;61273.97;4983530;28;20038;-62
2024/04/23 04:27:12;;;;;;;2.05;0.75;;;;;;;-145.63;100.00;61273.97;4980254;28;20038;-63
2024/04/23 04:29:38;;;;;;;0.50;0.50;;;;;;;-145.63;100.00;61273.97;4983428;28;20045;-64
2024/04/23 04:32:10;;;;;;;3.47;1.05;;;;;;;-145.63;100.00;61273.97;4988498;28;20026;-63
2024/04/23 04:34:36;;;;;;;0.50;0.50;;;;;;;-145.63;100.00;61273.97;4978323;28;20377;-63
2024/04/23 04:37:01;;;;;;;1.83;0.70;;;;;;;-145.63;100.00;61273.97;4979466;28;20042;-63
2024/04/23 04:39:27;;;;;;;3.65;0.80;;;;;;;-145.63;100.00;61273.97;4985155;28;20049;-64
2024/04/23 04:41:53;;;;;;;0.82;0.60;;;;;;;-145.63;100.00;61273.97;4977755;28;20035;-64
2024/04/23 04:44:18;;;;;;;1.63;0.85;;;;;;;-145.63;100.00;61273.97;4983174;28;20031;-65
2024/04/23 04:46:44;;;;;;;1.27;0.60;;;;;;;-145.63;100.00;61273.97;4987773;28;20049;-63
2024/04/23 04:49:10;;;;;;;0.85;0.60;;;;;;;-145.63;100.00;61273.97;4980330;28;20550;-62
2024/04/23 04:51:35;;;;;;;1.58;0.85;;;;;;;-145.63;100.00;61273.97;4981168;28;20037;-61
2024/04/23 04:54:01;;;;;;;0.90;0.60;;;;;;;-145.63;100.00;61273.97;4981636;28;20042;-62
2024/04/23 04:56:27;;;;;;;0.52;0.52;;;;;;;-145.63;100.00;61273.97;4975518;28;20067;-63
2024/04/23 04:58:53;;;;;;;0.60;0.60;;;;;;;-145.63;100.00;61273.97;4977439;28;20051;-62
2024/04/23 05:01:19;;;;;;;4.25;0.93;;;;;;;-145.63;100.00;61273.97;4983758;28;20042;-64
2024/04/23 05:03:44;;;;;;;1.75;0.70;;;;;;;-145.63;100.00;61273.97;4982516;28;20054;-62
2024/04/23 05:06:10;;;;;;;0.82;0.82;;;;;;;-145.63;100.00;61273.97;4980903;28;20113;-65
2024/04/23 05:08:35;;;;;;;1.05;0.93;;;;;;;-145.63;100.00;61273.97;4977099;28;20034;-61
2024/04/23 05:11:01;;;;;;;3.03;0.93;;;;;;;-145.63;100.00;61273.97;4983132;28;20089;-64
2024/04/23 05:13:27;;;;;;;1.75;0.80;;;;;;;-145.63;100.00;61273.97;4981178;28;20034;-61
2024/04/23 05:15:52;;;;;;;2.72;1.20;;;;;;;-145.63;100.00;61273.97;4985114;28;20133;-61
2024/04/23 05:18:18;;;;;;;1.42;0.60;;;;;;;-145.63;100.00;61273.97;4981811;28;20026;-62
2024/04/23 05:20:44;;;;;;;2.20;0.80;;;;;;;-145.63;100.00;61273.97;4982205;28;20564;-62
2024/04/23 05:23:09;;;;;;;4.93;1.08;;;;;;;-145.63;100.00;61273.97;4976046;28;20097;-61
2024/04/23 05:25:35;;;;;;;2.55;0.90;;;;;;;-145.63;100.00;61273.97;4978203;28;20090;-64
2024/04/23 05:28:00;;;;;;;4.28;0.80;;;;;;;-145.63;100.00;61273.97;4978928;28;20035;-62
2024/04/23 05:33:10;;;;;;;11.63;1.33;;;;;;;-145.63;100.00;61273.97;4980854;28;20033;-63
2024/04/23 05:35:36;;;;;;;9.50;1.77;;;;;;;-145.63;100.00;61273.97;4977446;28;20031;-61
2024/04/23 05:38:01;;;;;;;2.65;0.82;;;;;;;-145.63;100.00;61273.97;4979014;28;20106;-63
2024/04/23 05:40:27;;;;;;;6.25;1.30;;;;;;;-145.63;100.00;61273.97;4983795;28;20038;-64
2024/04/23 05:42:53;;;;;;;1.60;0.70;;;;;;;-145.63;100.00;61273.97;4982876;28;20054;-61
2024/04/23 05:45:18;;;;;;;13.20;1.85;;;;;;;-145.63;100.00;61273.97;4979025;28;20031;-61
2024/04/23 05:48:22;;;;;;;1.17;0.80;;;;;;;-145.63;100.00;61273.97;4980246;28;20026;-63
2024/04/23 05:51:25;;;;;;;2.92;1.00;;;;;;;-145.63;100.00;61273.97;4976630;28;20100;-63
2024/04/23 05:54:27;;;;;;;0.77;0.77;;;;;;;-145.63;100.00;61273.97;4997936;28;20042;-62
2024/04/23 05:56:53;;;;;;;2.25;0.90;;;;;;;-145.63;100.00;61273.97;4984095;28;20110;-65
2024/04/23 05:59:19;;;;;;;2.17;0.93;;;;;;;-145.63;100.00;61273.97;4981421;28;20129;-65
2024/04/23 06:01:45;;;;;;;2.15;0.70;;;;;;;-145.63;100.00;61273.97;4977539;28;20031;-63
2024/04/23 06:04:10;;;;;;;0.73;0.73;;;;;;;-145.63;100.00;61273.97;4980720;28;20050;-65
2024/04/23 06:06:36;;;;;;;1.42;0.95;;;;;;;-145.63;100.00;61273.97;4984613;28;20026;-62
2024/04/23 06:09:01;;;;;;;2.88;0.98;;;;;;;-145.63;100.00;61273.97;5000622;28;20464;-65
2024/04/23 06:11:29;;;;;;;5.18;1.00;;;;;;;-145.63;100.00;61273.97;4975667;28;20063;-63
2024/04/23 06:14:08;;;;;;;1.98;0.95;;;;;;;-145.63;100.00;61273.97;4976283;28;20117;-64
2024/04/23 06:16:33;;;;;;;5.00;0.90;;;;;;;-145.63;100.00;61273.97;4982276;28;20085;-62
2024/04/23 06:18:59;;;;;;;0.90;0.90;;;;;;;-145.63;100.00;61273.97;4977080;28;20118;-62
2024/04/23 06:21:25;;;;;;;3.10;1.05;;;;;;;-145.63;100.00;61273.97;4979494;28;20649;-63
2024/04/23 06:23:51;;;;;;;3.85;0.70;;;;;;;-145.63;100.00;61273.97;4980459;28;20481;-63
2024/04/23 06:26:16;;;;;;;1.42;0.95;;;;;;;-145.63;100.00;61273.97;4977935;28;20026;-63
2024/04/23 06:28:42;;;;;;;2.25;1.20;;;;;;;-145.63;100.00;61273.97;4977077;28;20035;-63
2024/04/23 06:31:11;;;;;;;3.28;1.23;;;;;;;-145.63;100.00;61273.97;4978643;28;20033;-62
2024/04/23 06:33:37;;;;;;;3.08;1.20;;;;;;;-145.63;100.00;61273.97;4972144;28;20031;-66
2024/04/23 06:36:03;;;;;;;1.77;0.80;;;;;;;-145.63;100.00;61273.97;4969074;28;20192;-64
2024/04/23 06:38:29;;;;;;;2.38;1.20;;;;;;;-145.63;100.00;61273.97;4981765;28;20031;-62
2024/04/23 06:40:55;;;;;;;5.88;2.03;;;;;;;-145.63;100.00;61273.97;4983309;28;20139;-64
2024/04/23 06:43:21;;;;;;;3.25;1.20;;;;;;;-145.63;100.00;61273.97;4974430;28;20448;-64
2024/04/23 06:45:46;;;;;;;2.70;1.83;;;;;;;-145.63;100.00;61273.97;4978502;28;20759;-64
2024/04/23 06:48:15;;;;;;;2.25;1.38;;;;;;;-145.63;100.00;61273.97;4981065;28;20034;-62
2024/04/23 06:50:42;;;;;;;3.65;1.65;;;;;;;-145.63;100.00;61273.97;4980695;28;20019;-63
2024/04/23 06:53:08;;;;;;;1.20;1.10;;;;;;;-145.63;100.00;61273.97;4974604;28;20091;-62
2024/04/23 06:55:33;;;;;;;1.48;1.10;;;;;;;-145.63;100.00;61273.97;4977431;28;20249;-63
2024/04/23 06:57:59;;;;;;;1.92;1.30;;;;;;;-145.63;100.00;61273.97;4977507;28;20391;-62
2024/04/23 07:00:25;;;;;;;4.57;1.55;;;;;;;-145.63;100.00;61273.97;4977608;28;20134;-62
2024/04/23 07:02:51;;;;;;;2.85;1.40;;;;;;;-145.63;100.00;61273.97;4981126;28;20053;-63
2024/04/23 07:05:17;;;;;;;5.22;1.60;;;;;;;-145.63;100.00;61273.97;4987030;28;20038;-62
2024/04/23 07:07:42;;;;;;;3.83;1.50;;;;;;;-145.63;100.00;61273.97;4988588;28;20479;-64
2024/04/23 07:10:08;;;;;;;2.50;1.42;;;;;;;-145.63;100.00;61273.97;4984322;28;20034;-61
2024/04/23 07:12:34;;;;;;;2.47;1.45;;;;;;;-145.63;100.00;61273.97;4972427;28;20046;-61
2024/04/23 07:15:00;;;;;;;7.22;1.42;;;;;;;-145.63;100.00;61273.97;4984971;28;20032;-63
2024/04/23 07:17:26;;;;;;;5.38;1.23;;;;;;;-145.63;100.00;61273.97;4981364;28;20061;-63
2024/04/23 07:19:52;;;;;;;3.70;1.10;;;;;;;-145.63;100.00;61273.97;4983798;28;20035;-64
2024/04/23 07:22:17;;;;;;;2.85;1.20;;;;;;;-145.63;100.00;61273.97;4977440;28;20041;-62
2024/04/23 07:24:43;;;;;;;2.92;1.00;;;;;;;-145.63;100.00;61273.97;4990414;28;20026;-62
2024/04/23 07:27:09;;;;;;;2.88;1.40;;;;;;;-145.63;100.00;61273.97;4984926;28;20041;-62
2024/04/23 07:29:34;;;;;;;3.00;1.55;;;;;;;-145.63;100.00;61273.97;4981148;28;20031;-62
2024/04/23 07:32:00;;;;;;;2.88;1.40;;;;;;;-145.63;100.00;61273.97;4984347;28;20065;-63
2024/04/23 07:34:26;;;;;;;1.85;1.52;;;;;;;-145.63;100.00;61273.97;4981930;28;20115;-66
2024/04/23 07:36:51;;;;;;;4.60;1.73;;;;;;;-145.63;100.00;61273.97;4972045;28;20038;-62
2024/04/23 07:39:17;;;;;;;4.30;1.70;;;;;;;-145.63;100.00;61273.97;4979375;28;20120;-64
2024/04/23 07:41:43;;;;;;;1.55;1.45;;;;;;;-145.63;100.00;61273.97;4985710;28;20474;-62
2024/04/23 07:44:08;;;;;;;4.13;1.80;;;;;;;-145.63;100.00;61273.97;4984458;28;20187;-63
2024/04/23 07:46:34;;;;;;;3.67;1.60;;;;;;;-145.63;100.00;61273.97;4978259;28;20106;-63
2024/04/23 07:49:00;;;;;;;7.75;1.80;;;;;;;-145.63;100.00;61273.97;4981531;28;20123;-64
2024/04/23 07:51:30;;;;;;;4.38;1.60;;;;;;;-145.63;100.00;61273.97;4990832;28;20041;-62
2024/04/23 07:53:56;;;;;;;2.03;1.38;;;;;;;-145.63;100.00;61273.97;4978005;28;20408;-64
2024/04/23 07:56:22;;;;;;;3.33;1.55;;;;;;;-145.63;100.00;61273.97;4979409;28;20391;-64
2024/04/23 07:58:48;;;;;;;5.63;1.60;;;;;;;-145.63;100.00;61273.97;4986988;28;20051;-65
2024/04/23 08:01:14;;;;;;;5.57;1.73;;;;;;;-145.63;100.00;61273.97;4982240;28;20506;-63
2024/04/23 08:03:40;;;;;;;3.28;1.52;;;;;;;-145.63;100.00;61273.97;4981546;28;20489;-62
2024/04/23 08:06:05;;;;;;;5.53;1.67;;;;;;;-145.63;100.00;61273.97;4989579;28;20027;-62
2024/04/23 08:08:31;;;;;;;2.53;1.40;;;;;;;-145.63;100.00;61273.97;4991318;28;20106;-62
2024/04/23 08:10:58;;;;;;;3.50;1.70;;;;;;;-145.63;100.00;61273.97;4985444;28;20053;-63
2024/04/23 08:13:24;;;;;;;2.75;1.60;;;;;;;-145.63;100.00;61273.97;4972717;28;20162;-64
2024/04/23 08:15:50;;;;;;;4.05;1.80;;;;;;;-145.63;100.00;61273.97;4990138;28;20113;-64
2024/04/23 08:18:16;;;;;;;5.55;2.08;;;;;;;-145.63;100.00;61273.97;4983205;28;20089;-62
2024/04/23 08:20:41;;;;;;;5.18;1.55;;;;;;;-145.63;100.00;61273.97;4982587;28;20043;-64
2024/04/23 08:23:07;;;;;;;2.55;2.10;;;;;;;-145.63;100.00;61273.97;4991103;28;20093;-62
2024/04/23 08:25:33;;;;;;;2.20;1.80;;;;;;;-145.63;100.00;61273.97;4989221;28;20042;-62
2024/04/23 08:27:58;;;;;;;6.25;1.80;;;;;;;-145.63;100.00;61273.97;4982547;28;20057;-63
2024/04/23 08:30:24;;;;;;;3.40;1.58;;;;;;;-145.63;100.00;61273.97;4980208;28;20030;-62
2024/04/23 08:32:50;;;;;;;3.30;1.80;;;;;;;-145.63;100.00;61273.97;4986968;28;20030;-61
2024/04/23 08:35:16;;;;;;;1.80;1.40;;;;;;;-145.63;100.00;61273.97;4984458;28;20034;-64
2024/04/23 08:37:43;;;;;;;7.32;2.03;;;;;;;-145.63;100.00;61273.97;4985810;28;20034;-64
2024/04/23 08:40:09;;;;;;;8.95;1.90;;;;;;;-145.63;100.00;61273.97;4984706;28;20039;-63
2024/04/23 08:42:38;;;;;;;4.57;1.50;;;;;;;-145.63;100.00;61273.97;5011373;28;20105;-62
2024/04/23 08:45:08;;;;;;;3.40;1.58;;;;;;;-145.63;100.00;61273.97;4999212;28;20041;-61
2024/04/23 08:47:35;;;;;;;4.47;1.85;;;;;;;-145.63;100.00;61273.97;4989330;28;20054;-63
2024/04/23 08:50:03;;;;;;;2.55;1.77;;;;;;;-145.63;100.00;61273.97;4988599;28;20030;-63
2024/04/23 08:52:31;;;;;;;1.63;1.50;;;;;;;-145.63;100.00;61273.97;4993072;28;20035;-63
2024/04/23 08:54:57;;;;;;;3.92;1.40;;;;;;;-145.63;100.00;61273.97;4974430;28;20039;-64
2024/04/23 08:57:23;;;;;;;5.35;1.60;;;;;;;-145.63;100.00;61273.97;4990831;28;20101;-64
2024/04/23 08:59:49;;;;;;;2.55;1.70;;;;;;;-145.63;100.00;61273.97;4987863;28;20058;-63
2024/04/23 09:02:29;;;;;;;4.50;2.03;;;;;;;-145.63;100.00;61273.97;4988061;28;20039;-64
2024/04/23 09:04:56;;;;;;;1.98;1.67;;;;;;;-145.63;100.00;61273.97;4987253;28;20526;-63
2024/04/23 09:07:22;;;;;;;6.20;2.00;;;;;;;-145.63;100.00;61273.97;4994039;28;20129;-62
2024/04/23 09:09:49;;;;;;;3.35;1.90;;;;;;;-145.63;100.00;61273.97;4974513;28;20431;-63
2024/04/23 09:12:16;;;;;;;4.07;1.70;;;;;;;-145.63;100.00;61273.97;4979634;28;20553;-63
2024/04/23 09:14:44;;;;;;;5.28;2.28;;;;;;;-145.63;100.00;61273.97;4983159;28;20121;-63
2024/04/23 09:17:11;;;;;;;4.22;2.00;;;;;;;-145.63;100.00;61273.97;4974097;28;20035;-64
2024/04/23 09:19:36;;;;;;;2.03;1.75;;;;;;;-145.63;100.00;61273.97;4976064;28;20110;-64
2024/04/23 09:22:04;;;;;;;4.57;2.08;;;;;;;-145.63;100.00;61273.97;4993619;28;20054;-64
2024/04/23 09:24:32;;;;;;;5.88;1.83;;;;;;;-145.63;100.00;61273.97;4976684;28;20050;-63
2024/04/23 09:26:59;;;;;;;3.38;1.63;;;;;;;-145.63;100.00;61273.97;4986550;28;20026;-64
2024/04/23 09:29:29;;;;;;;1.77;1.50;;;;;;;-145.63;100.00;61273.97;4982041;28;20098;-63
2024/04/23 09:31:55;;;;;;;6.90;2.40;;;;;;;-145.63;100.00;61273.97;4983206;28;20030;-63
2024/04/23 09:34:27;;;;;;;3.67;2.08;;;;;;;-145.63;100.00;61273.97;4982931;28;20034;-64
2024/04/23 09:36:52;;;;;;;;;;;;;;;-145.63;100.00;61273.97;4979790;28;20165;-63
2024/04/23 09:39:18;;;;;;;2.20;2.00;;;;;;;-145.63;100.00;61273.97;4983783;28;20361;-62
2024/04/23 09:42:04;;;;;;;6.53;2.08;;;;;;;-145.63;100.00;61273.97;4986106;28;20119;-62
2024/04/23 09:44:30;;;;;;;5.10;2.20;;;;;;;-145.63;100.00;61273.97;4993440;28;20039;-63
2024/04/23 09:46:56;;;;;;;4.82;2.38;;;;;;;-145.63;100.00;61273.97;4987753;28;20041;-63
2024/04/23 09:49:23;;;;;;;4.82;1.75;;;;;;;-145.63;100.00;61273.97;4980504;28;20030;-63
2024/04/23 09:51:48;;;;;;;3.92;2.10;;;;;;;-145.63;100.00;61273.97;4979186;28;20508;-61
2024/04/23 09:54:14;;;;;;;2.92;1.73;;;;;;;-145.63;100.00;61273.97;4981189;28;20046;-63
2024/04/23 09:56:41;;;;;;;4.80;1.48;;;;;;;-145.63;100.00;61273.97;4982749;28;20035;-62
2024/04/23 09:59:14;;;;;;;4.13;1.60;;;;;;;-145.63;100.00;61273.97;4973241;28;20105;-62
2024/04/23 10:01:42;;;;;;;1.98;1.70;;;;;;;-145.63;100.00;61273.97;4984483;28;20043;-64
2024/04/23 10:04:11;;;;;;;5.22;1.80;;;;;;;-145.63;100.00;61273.97;4973636;28;20118;-62
2024/04/23 10:06:43;;;;;;;3.58;1.90;;;;;;;-145.63;100.00;61273.97;4973670;28;20137;-62
2024/04/23 10:09:15;;;;;;;2.47;1.90;;;;;;;-145.63;100.00;61273.97;4983678;28;20039;-62
2024/04/23 10:11:55;;;;;;;2.55;1.50;;;;;;;-145.63;100.00;61273.97;4983080;28;20034;-62
2024/04/23 10:14:29;;;;;;;5.18;1.80;;;;;;;-145.63;100.00;61273.97;4985287;28;20042;-64
2024/04/23 10:17:09;;;;;;;5.90;1.80;;;;;;;-145.63;100.00;61273.97;4985056;28;20045;-63
2024/04/23 10:19:36;;;;;;;3.35;1.77;;;;;;;-145.63;100.00;61273.97;4991421;28;20076;-63
2024/04/23 10:22:04;;;;;;;2.97;1.90;;;;;;;-145.63;100.00;61273.97;4973006;28;20084;-63
2024/04/23 10:24:30;;;;;;;4.25;2.20;;;;;;;-145.63;100.00;61273.97;4981394;28;20042;-63
2024/04/23 10:26:56;;;;;;;1.70;1.50;;;;;;;-145.63;100.00;61273.97;4984819;28;20030;-63
2024/04/23 10:29:23;;;;;;;2.42;1.98;;;;;;;-145.63;100.00;61273.97;4984833;28;20031;-63
2024/04/23 10:31:49;;;;;;;2.08;1.77;;;;;;;-145.63;100.00;61273.97;4975749;28;20045;-62
2024/04/23 10:34:15;;;;;;;5.95;1.90;;;;;;;-145.63;100.00;61273.97;4992850;28;20034;-63
2024/04/23 10:36:47;;;;;;;2.08;1.85;;;;;;;-145.63;100.00;61273.97;4974375;28;20044;-64
2024/04/23 10:39:15;;;;;;;5.50;1.95;;;;;;;-145.63;100.00;61273.97;4975168;28;20042;-63
2024/04/23 10:41:41;;;;;;;3.10;1.98;;;;;;;-145.63;100.00;61273.97;4983675;28;20045;-65
2024/04/23 10:44:11;;;;;;;3.10;1.85;;;;;;;-145.63;100.00;61273.97;4979856;28;20023;-64
2024/04/23 10:46:39;;;;;;;2.90;1.85;;;;;;;-145.63;100.00;61273.97;4974413;28;20035;-62
2024/04/23 10:49:15;;;;;;;4.68;2.00;;;;;;;-145.63;100.00;61273.97;4991224;28;20031;-64
2024/04/23 10:51:50;;;;;;;4.03;2.17;;;;;;;-145.63;100.00;61273.97;4982253;28;20034;-65
2024/04/23 10:54:20;;;;;;;2.65;1.85;;;;;;;-145.63;100.00;61273.97;4984140;28;20030;-63
2024/04/23 10:57:09;;;;;;;4.53;2.20;;;;;;;-145.63;100.00;61273.97;4983490;28;20038;-63
2024/04/23 10:59:38;;;;;;;2.42;2.00;;;;;;;-145.63;100.00;61273.97;4981234;28;20053;-64
2024/04/23 11:02:09;;;;;;;3.00;2.17;;;;;;;-145.63;100.00;61273.97;4991466;28;20778;-63
2024/04/23 11:04:36;;;;;;;6.03;1.92;;;;;;;-145.63;100.00;61273.97;4991307;28;20030;-63
2024/04/23 11:07:04;;;;;;;2.83;1.95;;;;;;;-145.63;100.00;61273.97;4972103;28;20050;-63
2024/04/23 11:09:37;;;;;;;6.20;2.35;;;;;;;-145.63;100.00;61273.97;4972564;28;20121;-64
2024/04/23 11:12:03;;;;;;;4.47;2.15;;;;;;;-145.63;100.00;61273.97;4984721;28;20027;-63
2024/04/23 11:14:35;;;;;;;4.90;2.22;;;;;;;-145.63;100.00;61273.97;4983707;28;20094;-64
2024/04/23 11:17:05;;;;;;;2.47;1.85;;;;;;;-145.63;100.00;61273.97;4984584;28;20031;-63
2024/04/23 11:19:37;;;;;;;4.70;2.10;;;;;;;-145.63;100.00;61273.97;4987202;28;20026;-66